createdAt,value
2019-05-01T00:01:26.055Z,10.90
2019-05-01T00:04:02.167Z,10.90
2019-05-01T00:06:38.513Z,10.80
2019-05-01T00:09:09.174Z,10.80
2019-05-01T00:11:37.505Z,10.80
2019-05-01T00:14:07.020Z,10.80
2019-05-01T00:16:35.275Z,10.90
2019-05-01T00:19:03.967Z,10.80
2019-05-01T00:21:32.335Z,10.90
2019-05-01T00:24:00.605Z,10.80
2019-05-01T00:26:28.863Z,10.80
2019-05-01T00:28:57.144Z,10.80
2019-05-01T00:31:27.488Z,10.80
2019-05-01T00:33:55.835Z,10.80
2019-05-01T00:36:24.266Z,10.80
2019-05-01T00:38:52.615Z,10.80
2019-05-01T00:41:22.901Z,10.80
2019-05-01T00:43:51.256Z,10.80
2019-05-01T00:46:19.518Z,10.80
2019-05-01T00:48:47.862Z,10.70
2019-05-01T00:51:16.247Z,10.70
2019-05-01T00:53:44.503Z,10.70
2019-05-01T00:56:20.160Z,10.70
2019-05-01T00:59:01.189Z,10.70
2019-05-01T01:01:37.294Z,10.70
2019-05-01T01:04:05.663Z,10.60
2019-05-01T01:06:33.987Z,10.60
2019-05-01T01:09:02.251Z,10.70
2019-05-01T01:11:30.599Z,10.70
2019-05-01T01:13:58.859Z,10.70
2019-05-01T01:16:27.134Z,10.60
2019-05-01T01:18:55.475Z,10.60
2019-05-01T01:21:23.739Z,10.70
2019-05-01T01:23:52.011Z,10.70
2019-05-01T01:26:20.387Z,10.70
2019-05-01T01:28:49.763Z,10.60
2019-05-01T01:31:19.121Z,10.70
2019-05-01T01:33:47.405Z,10.60
2019-05-01T01:36:15.725Z,10.50
2019-05-01T01:38:44.081Z,10.60
2019-05-01T01:41:12.450Z,10.50
2019-05-01T01:43:57.323Z,10.50
2019-05-01T01:46:27.256Z,10.60
2019-05-01T01:48:55.655Z,10.60
2019-05-01T01:51:24.003Z,10.50
2019-05-01T01:53:52.279Z,10.60
2019-05-01T01:56:20.535Z,10.60
2019-05-01T01:58:48.811Z,10.60
2019-05-01T02:01:34.287Z,10.60
2019-05-01T02:04:07.208Z,10.60
2019-05-01T02:06:35.543Z,10.60
2019-05-01T02:09:05.187Z,10.50
2019-05-01T02:11:33.531Z,10.40
2019-05-01T02:14:01.888Z,10.50
2019-05-01T02:16:30.239Z,10.60
2019-05-01T02:18:58.658Z,10.60
2019-05-01T02:21:27.003Z,10.50
2019-05-01T02:23:55.279Z,10.50
2019-05-01T02:26:25.259Z,10.50
2019-05-01T02:28:55.155Z,10.50
2019-05-01T02:31:28.629Z,10.50
2019-05-01T02:33:55.078Z,10.50
2019-05-01T02:36:24.277Z,10.50
2019-05-01T02:38:53.158Z,10.40
2019-05-01T02:41:21.410Z,10.50
2019-05-01T02:43:50.149Z,10.50
2019-05-01T02:46:18.556Z,10.50
2019-05-01T02:49:09.903Z,10.40
2019-05-01T02:51:40.567Z,10.40
2019-05-01T02:54:08.983Z,10.40
2019-05-01T02:56:47.768Z,10.50
2019-05-01T02:59:16.109Z,10.50
2019-05-01T03:01:47.680Z,10.40
2019-05-01T03:04:14.447Z,10.40
2019-05-01T03:06:42.715Z,10.40
2019-05-01T03:09:11.070Z,10.40
2019-05-01T03:11:40.292Z,10.50
2019-05-01T03:14:11.354Z,10.40
2019-05-01T03:16:39.615Z,10.40
2019-05-01T03:19:25.927Z,10.40
2019-05-01T03:21:58.435Z,10.40
2019-05-01T03:24:29.491Z,10.40
2019-05-01T03:26:57.751Z,10.30
2019-05-01T03:29:26.011Z,10.30
2019-05-01T03:32:15.727Z,10.30
2019-05-01T03:34:27.499Z,10.30
2019-05-01T03:36:55.904Z,10.30
2019-05-01T03:39:24.188Z,10.30
2019-05-01T03:41:54.083Z,10.30
2019-05-01T03:44:22.407Z,10.30
2019-05-01T03:46:51.944Z,10.40
2019-05-01T03:49:20.217Z,10.40
2019-05-01T03:51:48.475Z,10.30
2019-05-01T03:54:16.764Z,10.30
2019-05-01T03:56:47.592Z,10.30
2019-05-01T03:59:16.105Z,10.30
2019-05-01T04:01:55.217Z,10.30
2019-05-01T04:04:28.125Z,10.30
2019-05-01T04:06:56.475Z,10.40
2019-05-01T04:09:24.763Z,10.40
2019-05-01T04:11:53.104Z,10.40
2019-05-01T04:14:21.443Z,10.40
2019-05-01T04:16:51.440Z,10.30
2019-05-01T04:19:20.631Z,10.30
2019-05-01T04:21:50.757Z,10.30
2019-05-01T04:24:19.124Z,10.30
2019-05-01T04:26:47.382Z,10.20
2019-05-01T04:29:17.288Z,10.20
2019-05-01T04:31:47.200Z,10.30
2019-05-01T04:34:22.998Z,10.30
2019-05-01T04:37:04.609Z,10.30
2019-05-01T04:39:32.892Z,10.30
2019-05-01T04:42:01.316Z,10.30
2019-05-01T04:44:29.600Z,10.30
2019-05-01T04:46:58.489Z,10.30
2019-05-01T04:49:26.749Z,10.40
2019-05-01T04:51:55.032Z,10.40
2019-05-01T04:54:23.379Z,10.40
2019-05-01T04:56:51.702Z,10.40
2019-05-01T04:59:20.052Z,10.40
2019-05-01T05:01:56.447Z,10.30
2019-05-01T05:04:24.674Z,10.40
2019-05-01T05:06:53.465Z,10.30
2019-05-01T05:09:23.367Z,10.40
2019-05-01T05:11:58.997Z,10.30
2019-05-01T05:14:28.971Z,10.30
2019-05-01T05:16:58.869Z,10.30
2019-05-01T05:19:27.156Z,10.40
2019-05-01T05:21:55.693Z,10.40
2019-05-01T05:24:24.043Z,10.40
2019-05-01T05:26:52.417Z,10.30
2019-05-01T05:29:20.759Z,10.40
2019-05-01T05:31:49.036Z,10.30
2019-05-01T05:34:19.401Z,10.40
2019-05-01T05:36:49.601Z,10.40
2019-05-01T05:39:19.499Z,10.40
2019-05-01T05:41:48.110Z,10.40
2019-05-01T05:44:16.447Z,10.40
2019-05-01T05:46:44.722Z,10.50
2019-05-01T05:49:13.084Z,10.40
2019-05-01T05:51:48.795Z,10.40
2019-05-01T05:54:31.440Z,10.40
2019-05-01T05:57:02.527Z,10.30
2019-05-01T05:59:32.771Z,10.40
2019-05-01T06:02:21.004Z,10.30
2019-05-01T06:04:52.056Z,10.30
2019-05-01T06:07:24.675Z,10.40
2019-05-01T06:10:08.003Z,10.40
2019-05-01T06:12:41.829Z,10.40
2019-05-01T06:15:13.116Z,10.40
2019-05-01T06:17:43.031Z,10.40
2019-05-01T06:20:25.797Z,10.40
2019-05-01T06:23:05.525Z,10.40
2019-05-01T06:25:36.134Z,10.40
2019-05-01T06:28:04.755Z,10.40
2019-05-01T06:30:33.943Z,10.40
2019-05-01T06:33:04.100Z,10.40
2019-05-01T06:35:34.067Z,10.40
2019-05-01T06:38:05.428Z,10.40
2019-05-01T06:40:38.751Z,10.50
2019-05-01T06:43:09.913Z,10.50
2019-05-01T06:45:40.383Z,10.40
2019-05-01T06:48:14.248Z,10.50
2019-05-01T06:50:51.091Z,10.40
2019-05-01T06:53:19.415Z,10.50
2019-05-01T06:55:47.833Z,10.50
2019-05-01T06:58:20.367Z,10.60
2019-05-01T07:00:46.099Z,10.60
2019-05-01T07:03:14.371Z,10.50
2019-05-01T07:05:44.713Z,10.50
2019-05-01T07:08:23.954Z,10.50
2019-05-01T07:10:44.376Z,10.50
2019-05-01T07:13:13.098Z,10.50
2019-05-01T07:15:41.367Z,10.50
2019-05-01T07:18:11.449Z,10.50
2019-05-01T07:20:41.346Z,10.60
2019-05-01T07:23:17.494Z,10.60
2019-05-01T07:25:45.564Z,10.60
2019-05-01T07:28:13.819Z,10.60
2019-05-01T07:30:49.991Z,10.60
2019-05-01T07:33:18.107Z,10.60
2019-05-01T07:35:46.388Z,10.60
2019-05-01T07:38:14.642Z,10.60
2019-05-01T07:40:42.929Z,10.60
2019-05-01T07:43:19.117Z,10.60
2019-05-01T07:45:47.517Z,10.60
2019-05-01T07:48:16.149Z,10.60
2019-05-01T07:50:44.415Z,10.60
2019-05-01T07:53:12.694Z,10.70
2019-05-01T07:55:40.994Z,10.70
2019-05-01T07:58:10.376Z,10.70
2019-05-01T08:00:47.125Z,10.70
2019-05-01T08:03:15.433Z,10.70
2019-05-01T08:05:45.421Z,10.80
2019-05-01T08:08:13.719Z,10.70
2019-05-01T08:10:41.982Z,10.70
2019-05-01T08:13:10.243Z,10.80
2019-05-01T08:15:38.531Z,10.80
2019-05-01T08:18:17.379Z,10.80
2019-05-01T08:21:05.538Z,10.80
2019-05-01T08:23:33.804Z,10.90
2019-05-01T08:26:04.050Z,10.80
2019-05-01T08:28:33.723Z,10.90
2019-05-01T08:31:03.663Z,10.90
2019-05-01T08:33:39.568Z,10.90
2019-05-01T08:36:11.704Z,10.90
2019-05-01T08:38:38.879Z,10.90
2019-05-01T08:41:07.167Z,11.00
2019-05-01T08:43:36.515Z,10.90
2019-05-01T08:46:18.364Z,11.00
2019-05-01T08:48:54.327Z,10.90
2019-05-01T08:51:22.617Z,10.90
2019-05-01T08:53:52.797Z,11.00
2019-05-01T08:56:22.086Z,11.00
2019-05-01T08:58:50.967Z,11.10
2019-05-01T09:01:19.238Z,11.10
2019-05-01T09:03:49.796Z,11.10
2019-05-01T09:06:17.498Z,11.00
2019-05-01T09:08:45.755Z,11.10
2019-05-01T09:11:14.021Z,11.10
2019-05-01T09:13:42.306Z,11.00
2019-05-01T09:16:10.569Z,11.10
2019-05-01T09:18:38.851Z,11.10
2019-05-01T09:21:07.171Z,11.20
2019-05-01T09:23:35.434Z,11.30
2019-05-01T09:26:16.120Z,11.20
2019-05-01T09:28:47.100Z,11.30
2019-05-01T09:31:16.997Z,11.30
2019-05-01T09:33:45.271Z,11.30
2019-05-01T09:36:13.529Z,11.30
2019-05-01T09:38:41.791Z,11.30
2019-05-01T09:41:10.067Z,11.30
2019-05-01T09:43:38.331Z,11.30
2019-05-01T09:46:06.908Z,11.30
2019-05-01T09:48:35.179Z,11.40
2019-05-01T09:51:07.590Z,11.30
2019-05-01T09:53:41.226Z,11.20
2019-05-01T09:56:11.323Z,11.20
2019-05-01T09:58:39.580Z,11.30
2019-05-01T10:01:08.147Z,11.30
2019-05-01T10:03:36.411Z,11.40
2019-05-01T10:06:06.037Z,11.30
2019-05-01T10:08:34.778Z,11.40
2019-05-01T10:11:06.602Z,11.40
2019-05-01T10:13:34.859Z,11.40
2019-05-01T10:16:03.143Z,11.40
2019-05-01T10:18:31.405Z,11.40
2019-05-01T10:20:59.663Z,11.50
2019-05-01T10:23:27.945Z,11.50
2019-05-01T10:25:57.845Z,11.60
2019-05-01T10:28:36.564Z,11.60
2019-05-01T10:31:13.186Z,11.60
2019-05-01T10:33:49.459Z,11.60
2019-05-01T10:36:25.288Z,11.70
2019-05-01T10:38:53.622Z,11.70
2019-05-01T10:41:21.908Z,11.80
2019-05-01T10:43:50.171Z,11.80
2019-05-01T10:46:18.427Z,11.70
2019-05-01T10:48:46.715Z,11.60
2019-05-01T10:51:15.054Z,11.60
2019-05-01T10:53:43.388Z,11.60
2019-05-01T10:56:11.687Z,11.70
2019-05-01T10:58:39.940Z,11.70
2019-05-01T11:01:12.522Z,11.60
2019-05-01T11:03:42.761Z,11.70
2019-05-01T11:06:10.821Z,11.80
2019-05-01T11:08:39.076Z,11.80
2019-05-01T11:11:07.360Z,11.80
2019-05-01T11:13:35.627Z,11.80
2019-05-01T11:16:03.871Z,11.80
2019-05-01T11:18:32.148Z,11.90
2019-05-01T11:21:00.419Z,11.80
2019-05-01T11:23:28.667Z,11.80
2019-05-01T11:25:56.948Z,11.90
2019-05-01T11:28:25.211Z,12.00
2019-05-01T11:30:53.531Z,12.00
2019-05-01T11:33:38.140Z,12.00
2019-05-01T11:36:22.875Z,12.10
2019-05-01T11:38:52.799Z,11.90
2019-05-01T11:41:40.891Z,12.00
2019-05-01T11:44:09.273Z,12.00
2019-05-01T11:46:37.525Z,12.00
2019-05-01T11:49:05.811Z,12.00
2019-05-01T11:51:34.151Z,12.10
2019-05-01T11:54:02.863Z,12.00
2019-05-01T11:56:31.123Z,12.10
2019-05-01T11:58:59.473Z,12.10
2019-05-01T12:01:27.739Z,12.10
2019-05-01T12:03:55.988Z,12.10
2019-05-01T12:06:24.265Z,12.20
2019-05-01T12:08:52.523Z,12.20
2019-05-01T12:11:22.412Z,12.30
2019-05-01T12:13:50.687Z,12.30
2019-05-01T12:16:23.519Z,12.20
2019-05-01T12:18:51.779Z,12.20
2019-05-01T12:21:20.051Z,12.10
2019-05-01T12:23:48.303Z,12.00
2019-05-01T12:26:16.567Z,12.00
2019-05-01T12:28:44.912Z,12.10
2019-05-01T12:31:13.172Z,12.10
2019-05-01T12:33:41.427Z,12.10
2019-05-01T12:36:11.284Z,12.20
2019-05-01T12:38:39.543Z,12.20
2019-05-01T12:41:25.808Z,12.10
2019-05-01T12:43:54.064Z,12.10
2019-05-01T12:46:40.196Z,12.10
2019-05-01T12:49:08.443Z,12.20
2019-05-01T12:51:37.781Z,12.20
2019-05-01T12:54:16.855Z,12.20
2019-05-01T12:56:48.487Z,12.20
2019-05-01T12:59:16.922Z,12.20
2019-05-01T13:01:45.186Z,12.10
2019-05-01T13:04:13.444Z,12.10
2019-05-01T13:06:49.190Z,12.10
2019-05-01T13:09:11.724Z,12.00
2019-05-01T13:11:39.979Z,12.00
2019-05-01T13:14:08.240Z,12.00
2019-05-01T13:16:36.854Z,12.00
2019-05-01T13:19:05.191Z,12.10
2019-05-01T13:21:33.444Z,12.10
2019-05-01T13:24:01.719Z,12.10
2019-05-01T13:26:31.700Z,12.10
2019-05-01T13:29:04.311Z,12.20
2019-05-01T13:31:34.305Z,12.20
2019-05-01T13:34:02.611Z,12.10
2019-05-01T13:36:30.867Z,12.20
2019-05-01T13:38:59.139Z,12.40
2019-05-01T13:41:27.392Z,12.30
2019-05-01T13:43:55.951Z,12.30
2019-05-01T13:46:24.235Z,12.20
2019-05-01T13:48:52.491Z,12.20
2019-05-01T13:51:20.739Z,12.20
2019-05-01T13:53:49.023Z,12.20
2019-05-01T13:56:17.278Z,12.20
2019-05-01T13:58:45.528Z,12.20
2019-05-01T14:01:14.467Z,12.20
2019-05-01T14:03:42.723Z,12.20
2019-05-01T14:06:11.069Z,12.20
2019-05-01T14:08:39.343Z,12.10
2019-05-01T14:11:07.617Z,12.20
2019-05-01T14:13:35.923Z,12.10
2019-05-01T14:16:04.203Z,12.10
2019-05-01T14:18:32.459Z,12.10
2019-05-01T14:21:02.367Z,12.10
2019-05-01T14:23:48.562Z,12.10
2019-05-01T14:26:16.819Z,12.10
2019-05-01T14:28:45.076Z,12.10
2019-05-01T14:31:13.936Z,12.10
2019-05-01T14:33:42.187Z,12.10
2019-05-01T14:36:10.464Z,12.20
2019-05-01T14:38:38.794Z,12.10
2019-05-01T14:41:07.065Z,12.10
2019-05-01T14:43:35.467Z,12.10
2019-05-01T14:46:03.743Z,12.10
2019-05-01T14:48:32.001Z,12.10
2019-05-01T14:51:00.266Z,12.20
2019-05-01T14:53:28.559Z,12.20
2019-05-01T14:55:56.801Z,12.10
2019-05-01T14:58:25.058Z,12.20
2019-05-01T15:00:53.332Z,12.20
2019-05-01T15:03:21.578Z,12.20
2019-05-01T15:05:49.847Z,12.30
2019-05-01T15:08:18.127Z,12.20
2019-05-01T15:10:46.383Z,12.20
2019-05-01T15:13:16.278Z,12.20
2019-05-01T15:15:49.514Z,12.30
2019-05-01T15:18:28.455Z,12.30
2019-05-01T15:20:56.883Z,12.20
2019-05-01T15:23:25.144Z,12.30
2019-05-01T15:25:53.399Z,12.30
2019-05-01T15:28:21.671Z,12.30
2019-05-01T15:30:49.919Z,12.30
2019-05-01T15:33:18.187Z,12.30
2019-05-01T15:35:46.470Z,12.20
2019-05-01T15:38:14.730Z,12.30
2019-05-01T15:40:47.575Z,12.30
2019-05-01T15:43:29.250Z,12.20
2019-05-01T15:45:57.501Z,12.20
2019-05-01T15:48:27.990Z,12.10
2019-05-01T15:50:56.258Z,12.10
2019-05-01T15:53:26.153Z,12.10
2019-05-01T15:55:54.424Z,12.20
2019-05-01T15:58:22.764Z,12.20
2019-05-01T16:00:51.111Z,12.20
2019-05-01T16:03:19.363Z,12.20
2019-05-01T16:05:47.636Z,12.10
2019-05-01T16:08:15.887Z,12.10
2019-05-01T16:10:45.779Z,11.90
2019-05-01T16:13:14.055Z,12.00
2019-05-01T16:15:42.309Z,12.00
2019-05-01T16:18:10.931Z,12.10
2019-05-01T16:20:39.208Z,12.00
2019-05-01T16:23:07.473Z,12.10
2019-05-01T16:25:35.792Z,12.20
2019-05-01T16:28:04.067Z,12.20
2019-05-01T16:30:32.671Z,12.20
2019-05-01T16:33:01.003Z,12.30
2019-05-01T16:35:29.278Z,12.30
2019-05-01T16:37:59.180Z,12.20
2019-05-01T16:40:29.072Z,12.10
2019-05-01T16:42:57.356Z,12.00
2019-05-01T16:45:25.626Z,11.90
2019-05-01T16:47:53.875Z,11.90
2019-05-01T16:50:22.668Z,11.80
2019-05-01T16:52:50.992Z,11.80
2019-05-01T16:55:19.247Z,11.70
2019-05-01T16:57:47.558Z,11.70
2019-05-01T17:00:15.859Z,11.60
2019-05-01T17:02:45.760Z,11.60
2019-05-01T17:05:34.043Z,11.60
2019-05-01T17:08:04.303Z,11.50
2019-05-01T17:10:34.212Z,11.50
2019-05-01T17:13:02.955Z,11.40
2019-05-01T17:15:35.654Z,11.50
2019-05-01T17:18:03.979Z,11.50
2019-05-01T17:20:32.407Z,11.40
2019-05-01T17:23:00.755Z,11.40
2019-05-01T17:25:29.585Z,11.40
2019-05-01T17:27:57.966Z,11.40
2019-05-01T17:30:35.452Z,11.40
2019-05-01T17:33:03.747Z,11.40
2019-05-01T17:35:32.147Z,11.40
2019-05-01T17:38:00.403Z,11.40
2019-05-01T17:40:28.759Z,11.40
2019-05-01T17:42:57.086Z,11.40
2019-05-01T17:45:29.826Z,11.40
2019-05-01T17:47:57.941Z,11.30
2019-05-01T17:50:26.352Z,11.30
2019-05-01T17:52:54.628Z,11.40
2019-05-01T17:55:22.935Z,11.20
2019-05-01T17:57:51.194Z,11.20
2019-05-01T18:00:30.032Z,11.20
2019-05-01T18:03:02.855Z,11.10
2019-05-01T18:05:48.849Z,11.10
2019-05-01T18:08:19.935Z,11.00
2019-05-01T18:10:48.197Z,11.10
2019-05-01T18:13:16.491Z,11.00
2019-05-01T18:15:44.734Z,10.90
2019-05-01T18:18:15.072Z,10.90
2019-05-01T18:20:42.985Z,10.90
2019-05-01T18:23:18.631Z,10.80
2019-05-01T18:26:04.912Z,10.80
2019-05-01T18:28:41.380Z,10.70
2019-05-01T18:31:14.176Z,10.70
2019-05-01T18:33:42.441Z,10.70
2019-05-01T18:36:10.961Z,10.60
2019-05-01T18:38:47.683Z,10.60
2019-05-01T18:41:27.426Z,10.50
2019-05-01T18:43:55.767Z,10.50
2019-05-01T18:46:24.019Z,10.50
2019-05-01T18:48:52.427Z,10.50
2019-05-01T18:51:20.711Z,10.40
2019-05-01T18:53:48.963Z,10.40
2019-05-01T18:56:17.224Z,10.20
2019-05-01T18:58:45.567Z,10.20
2019-05-01T19:01:13.896Z,10.10
2019-05-01T19:03:42.694Z,10.20
2019-05-01T19:06:12.152Z,10.10
2019-05-01T19:08:40.482Z,10.10
2019-05-01T19:11:12.621Z,10.00
2019-05-01T19:13:39.419Z,10.00
2019-05-01T19:16:08.697Z,10.10
2019-05-01T19:18:37.745Z,10.10
2019-05-01T19:21:06.518Z,10.10
2019-05-01T19:23:37.753Z,10.00
2019-05-01T19:26:06.861Z,10.00
2019-05-01T19:28:35.399Z,10.00
2019-05-01T19:31:03.743Z,10.00
2019-05-01T19:33:32.018Z,10.00
2019-05-01T19:36:02.420Z,9.90
2019-05-01T19:38:34.869Z,9.80
2019-05-01T19:41:03.588Z,9.80
2019-05-01T19:43:30.516Z,9.70
2019-05-01T19:45:58.779Z,9.60
2019-05-01T19:48:27.096Z,9.60
2019-05-01T19:50:55.429Z,9.50
2019-05-01T19:53:23.739Z,9.50
2019-05-01T19:55:52.024Z,9.50
2019-05-01T19:58:20.543Z,9.40
2019-05-01T20:00:52.291Z,9.40
2019-05-01T20:03:20.867Z,9.30
2019-05-01T20:05:49.803Z,9.30
2019-05-01T20:08:22.400Z,9.20
2019-05-01T20:10:51.578Z,9.30
2019-05-01T20:13:20.105Z,9.20
2019-05-01T20:15:49.227Z,9.20
2019-05-01T20:18:17.886Z,9.10
2019-05-01T20:20:46.753Z,9.10
2019-05-01T20:23:15.472Z,9.10
2019-05-01T20:25:43.927Z,9.10
2019-05-01T20:28:12.216Z,9.10
2019-05-01T20:30:41.403Z,9.00
2019-05-01T20:33:09.666Z,9.00
2019-05-01T20:35:38.010Z,9.00
2019-05-01T20:38:06.267Z,9.00
2019-05-01T20:40:34.528Z,8.90
2019-05-01T20:43:06.033Z,8.90
2019-05-01T20:45:33.984Z,8.90
2019-05-01T20:48:02.608Z,8.90
2019-05-01T20:50:31.819Z,8.80
2019-05-01T20:53:00.156Z,8.80
2019-05-01T20:55:28.412Z,8.80
2019-05-01T20:58:13.451Z,8.80
2019-05-01T21:00:42.135Z,8.80
2019-05-01T21:03:14.297Z,8.80
2019-05-01T21:05:42.120Z,8.70
2019-05-01T21:08:12.007Z,8.70
2019-05-01T21:10:51.094Z,8.70
2019-05-01T21:13:23.113Z,8.70
2019-05-01T21:15:49.555Z,8.60
2019-05-01T21:18:20.843Z,8.60
2019-05-01T21:20:47.819Z,8.60
2019-05-01T21:23:16.084Z,8.60
2019-05-01T21:25:44.440Z,8.50
2019-05-01T21:28:14.218Z,8.50
2019-05-01T21:30:43.980Z,8.50
2019-05-01T21:33:13.889Z,8.50
2019-05-01T21:35:44.356Z,8.50
2019-05-01T21:38:12.595Z,8.50
2019-05-01T21:40:41.364Z,8.40
2019-05-01T21:43:11.027Z,8.50
2019-05-01T21:45:39.284Z,8.40
2019-05-01T21:48:07.559Z,8.40
2019-05-01T21:50:36.724Z,8.40
2019-05-01T21:53:06.893Z,8.40
2019-05-01T21:55:35.008Z,8.30
2019-05-01T21:58:05.115Z,8.30
2019-05-01T22:00:34.998Z,8.30
2019-05-01T22:03:03.846Z,8.30
2019-05-01T22:05:34.726Z,8.20
2019-05-01T22:08:03.825Z,8.20
2019-05-01T22:10:32.083Z,8.20
2019-05-01T22:13:00.420Z,8.20
2019-05-01T22:15:47.082Z,8.20
2019-05-01T22:18:19.627Z,8.20
2019-05-01T22:20:55.418Z,8.20
2019-05-01T22:23:30.835Z,8.20
2019-05-01T22:26:00.775Z,8.10
2019-05-01T22:28:30.744Z,8.10
2019-05-01T22:31:09.963Z,8.00
2019-05-01T22:33:39.287Z,8.00
2019-05-01T22:36:07.546Z,8.00
2019-05-01T22:38:37.060Z,8.00
2019-05-01T22:41:09.740Z,8.00
2019-05-01T22:43:38.007Z,8.00
2019-05-01T22:46:07.918Z,8.00
2019-05-01T22:48:36.183Z,8.00
2019-05-01T22:51:06.147Z,8.00
2019-05-01T22:53:34.431Z,8.00
2019-05-01T22:56:04.073Z,8.00
2019-05-01T22:58:32.753Z,8.00
2019-05-01T23:01:01.719Z,8.00
2019-05-01T23:03:31.688Z,7.90
2019-05-01T23:06:02.000Z,7.90
2019-05-01T23:08:30.323Z,7.90
2019-05-01T23:10:58.597Z,8.00
2019-05-01T23:13:26.921Z,7.90
2019-05-01T23:15:56.241Z,7.90
2019-05-01T23:18:25.247Z,7.90
2019-05-01T23:20:53.503Z,7.90
2019-05-01T23:23:21.788Z,7.90
2019-05-01T23:25:50.037Z,7.90
2019-05-01T23:28:18.379Z,7.90
2019-05-01T23:30:46.663Z,7.80
2019-05-01T23:33:16.255Z,7.90
2019-05-01T23:35:44.640Z,8.00
2019-05-01T23:38:12.914Z,7.90
2019-05-01T23:40:41.219Z,8.00
2019-05-01T23:43:09.518Z,8.00
2019-05-01T23:45:37.788Z,8.00
2019-05-01T23:48:06.042Z,8.00
2019-05-01T23:50:34.333Z,8.00
2019-05-01T23:53:04.279Z,8.00
2019-05-01T23:55:32.619Z,7.90
2019-05-01T23:58:00.883Z,7.90
